Time;durP1;ratioP1;P1;durP2;ratioP2;P2;SDS_P1;SDS_P2;PMS_P1;PMS_P2;Temp;Humidity;BMP_temperature;BMP_pressure;BME280_temperature;BME280_humidity;BME280_pressure;Samples;Min_cycle;Max_cycle;Signal;HPM_P1;HPM_P2
2022/12/30 00:00:49;;;;;;;9.63;9.32;;;6.80;99.90;;;;;;5011848;28;20510;-76
2022/12/30 00:03:15;;;;;;;8.50;8.20;;;6.80;99.90;;;;;;5017932;28;20032;-74
2022/12/30 00:05:41;;;;;;;8.77;8.48;;;6.80;99.90;;;;;;5021421;28;20022;-75
2022/12/30 00:08:45;;;;;;;9.25;8.95;;;6.80;99.90;;;;;;5012783;28;20033;-75
2022/12/30 00:10:55;;;;;;;9.55;9.25;;;6.80;99.90;;;;;;5026506;28;20032;-75
2022/12/30 00:35:20;;;;;;;9.40;9.10;;;6.80;99.90;;;;;;5028021;28;20033;-76
2022/12/30 00:37:46;;;;;;;9.30;9.00;;;6.80;99.90;;;;;;5041788;28;20018;-76
2022/12/30 00:40:12;;;;;;;10.38;9.98;;;6.80;99.90;;;;;;5015616;28;20105;-74
2022/12/30 00:45:24;;;;;;;11.60;11.20;;;6.90;99.90;;;;;;5025364;28;20032;-75
2022/12/30 00:47:50;;;;;;;16.73;16.02;;;6.90;99.90;;;;;;5024070;28;20079;-75
2022/12/30 00:58:28;;;;;;;12.75;12.27;;;6.70;99.90;;;;;;5018456;28;20033;-75
2022/12/30 01:00:54;;;;;;;10.90;10.50;;;6.70;99.90;;;;;;5018644;28;20018;-75
2022/12/30 01:03:19;;;;;;;11.55;11.15;;;6.70;99.90;;;;;;5025148;28;20416;-77
2022/12/30 01:05:45;;;;;;;10.65;10.25;;;6.70;99.90;;;;;;5024664;28;20037;-76
2022/12/30 01:08:11;;;;;;;11.27;10.88;;;6.70;99.90;;;;;;5018142;28;20061;-77
2022/12/30 01:10:38;;;;;;;10.70;10.30;;;6.70;99.90;;;;;;5017616;28;20041;-76
2022/12/30 01:13:03;;;;;;;10.38;9.98;;;6.70;99.90;;;;;;5023616;28;20026;-75
2022/12/30 01:15:29;;;;;;;10.70;10.30;;;6.70;99.90;;;;;;5028059;28;20048;-75
2022/12/30 01:17:54;;;;;;;10.40;10.00;;;6.60;99.90;;;;;;5022395;28;20387;-76
2022/12/30 01:20:20;;;;;;;10.60;10.20;;;6.60;99.90;;;;;;5032423;28;20034;-76
2022/12/30 01:22:45;;;;;;;10.50;10.10;;;6.50;99.90;;;;;;5025365;28;20044;-75
2022/12/30 01:25:11;;;;;;;10.65;10.25;;;6.40;99.90;;;;;;5022289;28;20106;-75
2022/12/30 01:27:37;;;;;;;11.13;10.73;;;6.50;99.90;;;;;;5025488;28;20473;-75
2022/12/30 01:30:03;;;;;;;10.55;10.15;;;6.40;99.90;;;;;;5027665;28;20088;-76
2022/12/30 01:32:30;;;;;;;10.60;10.20;;;6.40;99.90;;;;;;5024971;28;20021;-75
2022/12/30 01:34:56;;;;;;;10.52;10.13;;;6.50;99.90;;;;;;5021915;28;20404;-75
2022/12/30 01:37:23;;;;;;;10.40;10.00;;;6.50;99.90;;;;;;5025225;28;20025;-74
2022/12/30 01:39:49;;;;;;;9.25;8.95;;;6.50;99.90;;;;;;5028595;28;20029;-76
2022/12/30 01:42:24;;;;;;;9.98;9.65;;;6.50;99.90;;;;;;5025474;28;20052;-76
2022/12/30 01:45:01;;;;;;;11.27;10.77;;;6.40;99.90;;;;;;5020581;28;20026;-76
2022/12/30 01:48:01;;;;;;;9.25;8.95;;;6.30;99.90;;;;;;5022832;28;20026;-76
2022/12/30 01:50:42;;;;;;;10.23;9.82;;;6.40;99.90;;;;;;5024315;28;20037;-76
2022/12/30 01:53:15;;;;;;;10.30;9.90;;;6.50;99.90;;;;;;5016093;28;20392;-75
2022/12/30 01:55:50;;;;;;;10.75;10.35;;;6.50;99.90;;;;;;5015008;28;20092;-76
2022/12/30 01:58:23;;;;;;;9.05;8.75;;;6.60;99.90;;;;;;5023663;28;20549;-75
2022/12/30 02:00:48;;;;;;;10.65;10.25;;;6.60;99.90;;;;;;5034902;28;20025;-76
2022/12/30 02:03:14;;;;;;;9.45;9.15;;;6.60;99.90;;;;;;5034638;28;20435;-76
2022/12/30 02:05:42;;;;;;;9.70;9.40;;;6.50;99.90;;;;;;5031983;28;20041;-76
2022/12/30 02:08:17;;;;;;;10.23;9.82;;;6.50;99.90;;;;;;5015413;28;20054;-76
2022/12/30 02:10:46;;;;;;;10.50;10.10;;;6.50;99.90;;;;;;5013917;28;20025;-76
2022/12/30 02:13:13;;;;;;;8.43;8.13;;;6.40;99.90;;;;;;5015300;28;20361;-76
2022/12/30 02:16:10;;;;;;;9.50;9.20;;;6.30;99.90;;;;;;5027610;28;20026;-77
2022/12/30 02:18:38;;;;;;;9.60;9.30;;;6.30;99.90;;;;;;5030703;28;20024;-75
2022/12/30 02:21:19;;;;;;;8.85;8.55;;;6.30;99.90;;;;;;5033926;28;20502;-76
2022/12/30 02:24:03;;;;;;;8.52;8.23;;;6.20;99.90;;;;;;5017749;28;20030;-77
2022/12/30 02:26:49;;;;;;;17.05;8.23;;;6.20;99.90;;;;;;5013467;28;20025;-77
2022/12/30 02:29:40;;;;;;;9.20;8.90;;;6.10;99.90;;;;;;5026635;28;20025;-77
2022/12/30 02:32:27;;;;;;;8.50;8.20;;;6.10;99.90;;;;;;5029092;28;20025;-77
2022/12/30 02:35:02;;;;;;;8.93;8.63;;;6.00;99.90;;;;;;5029235;28;20026;-77
2022/12/30 02:37:39;;;;;;;9.40;9.10;;;5.90;99.90;;;;;;5026062;28;20025;-77
2022/12/30 02:46:14;;;;;;;8.63;8.32;;;5.80;99.90;;;;;;5029234;28;20037;-77
2022/12/30 02:48:44;;;;;;;8.50;8.20;;;5.80;99.90;;;;;;5014211;28;20026;-77
2022/12/30 02:53:54;;;;;;;8.55;8.25;;;5.80;99.90;;;;;;5021971;28;20075;-75
2022/12/30 02:56:20;;;;;;;8.02;7.72;;;5.80;99.90;;;;;;5032636;28;20033;-76
2022/12/30 03:03:56;;;;;;;8.85;8.55;;;5.80;99.90;;;;;;5033432;28;20144;-75
2022/12/30 03:05:19;;;;;;;8.45;8.15;;;5.80;99.90;;;;;;5033661;28;20064;-76
2022/12/30 03:08:01;;;;;;;8.70;8.40;;;5.80;99.90;;;;;;4962966;28;20043;-76
2022/12/30 03:13:48;;;;;;;7.97;7.68;;;5.90;99.90;;;;;;5019142;28;20388;-76
2022/12/30 03:16:26;;;;;;;8.35;8.05;;;5.90;99.90;;;;;;5013587;28;20033;-76
2022/12/30 03:18:53;;;;;;;8.48;8.18;;;5.90;99.90;;;;;;5013353;28;20026;-76
2022/12/30 03:21:20;;;;;;;8.10;7.80;;;5.80;99.90;;;;;;5012774;28;20480;-76
2022/12/30 03:29:25;;;;;;;8.60;8.30;;;5.70;99.90;;;;;;5013779;28;20037;-75
2022/12/30 03:31:52;;;;;;;8.65;8.35;;;5.60;99.90;;;;;;5011989;28;20042;-74
2022/12/30 03:34:18;;;;;;;8.18;7.88;;;5.60;99.90;;;;;;5013230;28;20557;-74
2022/12/30 03:36:48;;;;;;;8.40;8.10;;;5.50;99.90;;;;;;5012769;28;20101;-74
2022/12/30 03:39:37;;;;;;;9.25;8.95;;;5.50;99.90;;;;;;5013234;28;20060;-76
2022/12/30 03:42:04;;;;;;;9.00;8.70;;;5.40;99.90;;;;;;5020692;28;20025;-74
2022/12/30 03:44:31;;;;;;;8.80;8.50;;;5.40;99.90;;;;;;5032895;28;20112;-74
2022/12/30 03:46:56;;;;;;;7.88;7.57;;;5.40;99.90;;;;;;5031333;28;20049;-75
2022/12/30 03:49:22;;;;;;;8.05;7.75;;;5.40;99.90;;;;;;5031442;28;20101;-75
2022/12/30 03:51:48;;;;;;;8.48;8.18;;;5.30;99.90;;;;;;5023650;28;20044;-75
2022/12/30 03:54:14;;;;;;;8.20;7.90;;;5.30;99.90;;;;;;5012875;28;20030;-76
2022/12/30 03:56:39;;;;;;;8.88;8.57;;;5.30;99.90;;;;;;5020465;28;20067;-76
2022/12/30 03:59:05;;;;;;;8.32;8.02;;;5.20;99.90;;;;;;5018217;28;20025;-76
2022/12/30 04:01:31;;;;;;;9.82;9.52;;;4.80;99.90;;;;;;5011572;28;20448;-76
2022/12/30 04:03:56;;;;;;;7.93;7.63;;;4.70;99.90;;;;;;5012583;28;20030;-76
2022/12/30 04:06:22;;;;;;;8.65;8.35;;;4.60;99.90;;;;;;5012677;28;20057;-74
2022/12/30 04:08:47;;;;;;;8.70;8.40;;;4.60;99.90;;;;;;5012049;28;20041;-74
2022/12/30 04:11:13;;;;;;;8.90;8.60;;;4.60;99.90;;;;;;5024891;28;20026;-77
2022/12/30 04:13:38;;;;;;;9.07;8.77;;;4.60;99.90;;;;;;5012452;28;20022;-76
2022/12/30 04:16:04;;;;;;;9.75;9.45;;;4.70;99.90;;;;;;5012557;28;20022;-76
2022/12/30 04:18:30;;;;;;;8.30;8.00;;;4.70;99.90;;;;;;5025077;28;20116;-76
2022/12/30 04:20:55;;;;;;;9.77;9.48;;;4.80;99.90;;;;;;5024368;28;20109;-75
2022/12/30 04:23:21;;;;;;;8.45;8.15;;;4.80;99.90;;;;;;5024436;28;20032;-76
2022/12/30 04:25:46;;;;;;;8.82;8.52;;;4.80;99.90;;;;;;5020061;28;20033;-74
2022/12/30 04:28:12;;;;;;;8.50;8.20;;;4.80;99.90;;;;;;5018565;28;20033;-76
2022/12/30 04:30:37;;;;;;;10.27;9.88;;;4.90;99.90;;;;;;5023162;28;20059;-74
2022/12/30 04:33:03;;;;;;;8.90;8.60;;;4.90;99.90;;;;;;5013050;28;20026;-76
2022/12/30 04:35:29;;;;;;;8.00;7.70;;;4.90;99.90;;;;;;5024650;28;20148;-74
2022/12/30 04:37:54;;;;;;;8.93;8.63;;;4.90;99.90;;;;;;5025343;28;20032;-75
2022/12/30 04:40:20;;;;;;;8.00;7.70;;;4.80;99.90;;;;;;5019541;28;20511;-75
2022/12/30 04:42:45;;;;;;;7.60;7.30;;;4.80;99.90;;;;;;5018305;28;20429;-77
2022/12/30 04:45:11;;;;;;;8.13;7.82;;;4.80;99.90;;;;;;5024846;28;20488;-75
2022/12/30 04:47:37;;;;;;;7.78;7.47;;;4.70;99.90;;;;;;5025292;28;20431;-75
2022/12/30 04:50:03;;;;;;;9.05;8.75;;;4.70;99.90;;;;;;5018077;28;20064;-73
2022/12/30 04:52:28;;;;;;;7.10;6.90;;;4.70;99.90;;;;;;5016894;28;20484;-74
2022/12/30 04:54:54;;;;;;;7.22;7.00;;;4.70;99.90;;;;;;5011928;28;20030;-74
2022/12/30 04:57:20;;;;;;;7.90;7.60;;;4.60;99.90;;;;;;5011815;28;20543;-75
2022/12/30 04:59:45;;;;;;;8.40;8.10;;;4.60;99.90;;;;;;5031585;28;20030;-75
2022/12/30 05:02:12;;;;;;;9.00;8.70;;;4.60;99.90;;;;;;5031578;28;20034;-75
2022/12/30 05:04:37;;;;;;;8.35;8.05;;;4.60;99.90;;;;;;5030118;28;20029;-75
2022/12/30 05:07:04;;;;;;;9.55;9.25;;;4.60;99.90;;;;;;5030118;28;20500;-75
2022/12/30 05:09:29;;;;;;;8.88;8.57;;;4.50;99.90;;;;;;5031460;28;20079;-75
2022/12/30 05:11:55;;;;;;;7.55;7.28;;;4.50;99.90;;;;;;5018866;28;20025;-76
2022/12/30 05:14:20;;;;;;;7.85;7.55;;;4.50;99.90;;;;;;5017899;28;20026;-75
2022/12/30 05:16:46;;;;;;;8.25;7.95;;;4.50;99.90;;;;;;5030997;28;20091;-75
2022/12/30 05:19:11;;;;;;;8.82;8.52;;;4.50;99.90;;;;;;5029916;28;20033;-74
2022/12/30 05:21:37;;;;;;;7.60;7.30;;;4.50;99.90;;;;;;5016877;28;20029;-75
2022/12/30 05:26:47;;;;;;;7.60;7.30;;;4.40;99.90;;;;;;5026635;28;20087;-74
2022/12/30 05:29:12;;;;;;;7.57;7.28;;;4.40;99.90;;;;;;5011648;28;20064;-76
2022/12/30 05:31:38;;;;;;;7.80;7.50;;;4.30;99.90;;;;;;5011560;28;20117;-74
2022/12/30 05:34:03;;;;;;;7.40;7.18;;;4.20;99.90;;;;;;5011602;28;20123;-73
2022/12/30 05:36:29;;;;;;;9.23;8.93;;;4.30;99.90;;;;;;5012097;28;20045;-75
2022/12/30 05:38:54;;;;;;;8.25;7.95;;;4.30;99.90;;;;;;5011528;28;20026;-75
2022/12/30 05:41:20;;;;;;;8.10;7.80;;;4.30;99.90;;;;;;5024824;28;20109;-75
2022/12/30 05:43:46;;;;;;;8.30;8.00;;;4.30;99.90;;;;;;5011383;28;20038;-75
2022/12/30 05:46:12;;;;;;;8.10;7.80;;;4.30;99.90;;;;;;5011639;28;20018;-75
2022/12/30 05:48:37;;;;;;;8.40;8.10;;;4.30;99.90;;;;;;5020601;28;20025;-76
2022/12/30 05:51:03;;;;;;;8.43;8.13;;;4.30;99.90;;;;;;5018150;28;20022;-76
2022/12/30 05:53:29;;;;;;;9.68;9.38;;;4.20;99.90;;;;;;5022031;28;20073;-76
2022/12/30 05:55:54;;;;;;;9.00;8.70;;;4.20;99.90;;;;;;5024771;28;20025;-77
2022/12/30 05:58:20;;;;;;;8.00;7.70;;;4.20;99.90;;;;;;5020345;28;20017;-76
2022/12/30 06:00:45;;;;;;;7.90;7.60;;;4.30;99.90;;;;;;5019955;28;20080;-76
2022/12/30 06:03:11;;;;;;;8.00;7.70;;;4.30;99.90;;;;;;5025735;28;20040;-76
2022/12/30 06:05:36;;;;;;;8.68;8.38;;;4.30;99.90;;;;;;5015141;28;20499;-76
2022/12/30 06:08:02;;;;;;;8.25;7.95;;;4.30;99.90;;;;;;5023778;28;20029;-76
2022/12/30 06:10:28;;;;;;;8.45;8.15;;;4.20;99.90;;;;;;5021533;28;20480;-76
2022/12/30 06:12:53;;;;;;;6.82;6.63;;;4.20;99.90;;;;;;5024343;28;20110;-76
2022/12/30 06:15:19;;;;;;;8.00;7.70;;;3.80;99.90;;;;;;5030622;28;20538;-76
2022/12/30 06:17:45;;;;;;;8.25;7.95;;;3.50;99.90;;;;;;5025691;28;20026;-76
2022/12/30 06:20:10;;;;;;;8.98;8.68;;;3.40;99.90;;;;;;5016843;28;20037;-76
2022/12/30 06:22:36;;;;;;;9.27;8.98;;;3.50;99.90;;;;;;5026242;28;20026;-77
2022/12/30 06:25:01;;;;;;;9.02;8.73;;;3.60;99.90;;;;;;5016571;28;20029;-76
2022/12/30 06:27:27;;;;;;;8.43;8.13;;;3.70;99.90;;;;;;5026138;28;20037;-77
2022/12/30 06:29:52;;;;;;;7.68;7.38;;;3.80;99.90;;;;;;5025928;28;20498;-77
2022/12/30 06:32:18;;;;;;;8.73;8.43;;;3.80;99.90;;;;;;5032704;28;20502;-76
2022/12/30 06:34:43;;;;;;;8.85;8.55;;;3.90;99.90;;;;;;5029254;28;20376;-77
2022/12/30 06:37:09;;;;;;;8.15;7.85;;;3.90;99.90;;;;;;5025945;28;20048;-76
2022/12/30 06:39:34;;;;;;;8.93;8.63;;;3.90;99.90;;;;;;5027458;28;20037;-76
2022/12/30 06:42:00;;;;;;;7.90;7.60;;;3.90;99.90;;;;;;5021203;28;20506;-76
2022/12/30 06:44:26;;;;;;;9.05;8.75;;;3.90;99.90;;;;;;5031424;28;20403;-77
2022/12/30 06:46:51;;;;;;;9.70;9.40;;;3.80;99.90;;;;;;5013993;28;20040;-77
2022/12/30 06:49:17;;;;;;;7.85;7.55;;;3.90;99.90;;;;;;5027325;28;20068;-76
2022/12/30 06:51:42;;;;;;;8.40;8.10;;;3.80;99.90;;;;;;5022219;28;20104;-77
2022/12/30 06:54:08;;;;;;;8.68;8.38;;;3.80;99.90;;;;;;5018986;28;20025;-76
2022/12/30 06:56:33;;;;;;;8.98;8.68;;;3.80;99.90;;;;;;5014012;28;20423;-77
2022/12/30 06:58:59;;;;;;;9.02;8.73;;;3.80;99.90;;;;;;5015531;28;20495;-77
2022/12/30 07:01:24;;;;;;;8.65;8.35;;;3.80;99.90;;;;;;5024103;28;20440;-77
2022/12/30 07:03:50;;;;;;;8.40;8.10;;;3.80;99.90;;;;;;5027322;28;20107;-76
2022/12/30 07:06:15;;;;;;;9.25;8.95;;;3.80;99.90;;;;;;5020779;28;20022;-76
2022/12/30 07:08:41;;;;;;;8.95;8.65;;;3.80;99.90;;;;;;5020248;28;20396;-77
2022/12/30 07:11:06;;;;;;;9.13;8.82;;;3.70;99.90;;;;;;5023835;28;20396;-77
2022/12/30 07:13:32;;;;;;;10.10;9.75;;;3.70;99.90;;;;;;5026341;28;20490;-77
2022/12/30 07:15:58;;;;;;;11.02;10.52;;;3.70;99.90;;;;;;5021785;28;20025;-77
2022/12/30 07:18:23;;;;;;;8.85;8.55;;;3.60;99.90;;;;;;5019950;28;20034;-77
2022/12/30 07:20:49;;;;;;;9.20;8.90;;;3.50;99.90;;;;;;5025348;28;20022;-77
2022/12/30 07:23:14;;;;;;;10.00;9.65;;;3.50;99.90;;;;;;5026747;28;20021;-76
2022/12/30 07:25:40;;;;;;;9.98;9.63;;;3.60;99.90;;;;;;5020472;28;20025;-77
2022/12/30 07:28:06;;;;;;;9.05;8.75;;;3.60;99.90;;;;;;5031828;28;20440;-76
2022/12/30 07:30:32;;;;;;;9.13;8.82;;;3.60;99.90;;;;;;5026479;28;20053;-76
2022/12/30 07:32:58;;;;;;;8.05;7.75;;;3.60;99.90;;;;;;5026425;28;20025;-76
2022/12/30 07:35:23;;;;;;;8.20;7.90;;;3.70;99.90;;;;;;5013299;28;20443;-76
2022/12/30 07:37:50;;;;;;;8.15;7.85;;;3.70;99.90;;;;;;5012561;28;20033;-76
2022/12/30 07:40:16;;;;;;;9.10;8.80;;;3.70;99.90;;;;;;5020526;28;20025;-77
2022/12/30 07:42:41;;;;;;;8.48;8.18;;;3.70;99.90;;;;;;5018005;28;20029;-75
2022/12/30 07:45:07;;;;;;;8.93;8.63;;;3.80;99.90;;;;;;5026098;28;20506;-77
2022/12/30 07:47:34;;;;;;;9.57;9.27;;;3.80;99.90;;;;;;5016950;28;20093;-77
2022/12/30 07:50:01;;;;;;;10.68;10.18;;;3.70;99.90;;;;;;5027602;28;20074;-77
2022/12/30 07:52:27;;;;;;;9.63;9.32;;;3.80;99.90;;;;;;5026969;28;20033;-77
2022/12/30 07:54:52;;;;;;;9.40;9.10;;;3.80;99.90;;;;;;5013326;28;20498;-76
2022/12/30 07:57:18;;;;;;;10.15;9.77;;;3.80;99.90;;;;;;5012141;28;20026;-77
2022/12/30 07:59:43;;;;;;;9.30;9.00;;;3.90;99.90;;;;;;5013001;28;20029;-77
2022/12/30 08:02:12;;;;;;;8.75;8.45;;;3.80;99.90;;;;;;5012925;28;20443;-76
2022/12/30 08:04:38;;;;;;;7.50;7.25;;;3.90;99.90;;;;;;5013885;28;20026;-77
2022/12/30 08:07:03;;;;;;;8.32;8.02;;;3.90;99.90;;;;;;5013498;28;20120;-77
2022/12/30 08:09:29;;;;;;;8.95;8.65;;;3.90;99.90;;;;;;5031415;28;20112;-75
2022/12/30 08:11:54;;;;;;;8.25;7.95;;;3.90;99.90;;;;;;5032336;28;20205;-76
2022/12/30 08:14:20;;;;;;;8.35;8.05;;;4.00;99.90;;;;;;5025481;28;20026;-76
2022/12/30 08:16:46;;;;;;;9.52;9.23;;;4.10;99.90;;;;;;5011021;28;20026;-76
2022/12/30 08:19:11;;;;;;;10.00;9.68;;;4.20;99.90;;;;;;5012338;28;20035;-76
2022/12/30 08:21:37;;;;;;;9.40;9.10;;;4.20;99.90;;;;;;5025613;28;20372;-76
2022/12/30 08:24:03;;;;;;;9.05;8.75;;;4.20;99.90;;;;;;5012433;28;20413;-77
2022/12/30 08:26:29;;;;;;;8.98;8.68;;;4.20;99.90;;;;;;5011063;28;20068;-75
2022/12/30 08:28:55;;;;;;;9.60;9.30;;;4.30;99.90;;;;;;5010527;28;20021;-75
2022/12/30 08:31:26;;;;;;;9.38;9.07;;;4.30;99.90;;;;;;5011268;28;20500;-75
2022/12/30 08:33:52;;;;;;;9.48;9.18;;;4.40;99.90;;;;;;5024457;28;20473;-75
2022/12/30 08:36:21;;;;;;;9.20;8.90;;;4.50;99.90;;;;;;5026420;28;20108;-76
2022/12/30 08:38:49;;;;;;;9.65;9.35;;;4.70;99.90;;;;;;5023256;28;20029;-76
2022/12/30 08:41:18;;;;;;;7.80;7.50;;;4.90;99.90;;;;;;5024066;28;20368;-76
2022/12/30 08:43:45;;;;;;;9.23;8.93;;;5.00;99.90;;;;;;5020433;28;20029;-77
2022/12/30 08:46:11;;;;;;;9.07;8.77;;;5.10;99.90;;;;;;5031287;28;20025;-74
2022/12/30 08:48:36;;;;;;;9.30;9.00;;;5.20;99.90;;;;;;5012083;28;20382;-76
2022/12/30 08:51:02;;;;;;;10.35;9.95;;;5.20;99.90;;;;;;5025432;28;20029;-74
2022/12/30 08:53:28;;;;;;;10.18;9.77;;;5.20;99.90;;;;;;5010734;28;20499;-76
2022/12/30 08:56:10;;;;;;;10.27;9.88;;;5.30;99.90;;;;;;5010656;28;20060;-76
2022/12/30 08:58:36;;;;;;;10.27;9.90;;;5.40;99.90;;;;;;5023094;28;20559;-77
2022/12/30 09:01:21;;;;;;;10.35;9.95;;;5.40;99.90;;;;;;5017305;28;20120;-77
2022/12/30 09:03:49;;;;;;;10.38;9.98;;;5.50;99.90;;;;;;5017108;28;20033;-76
2022/12/30 09:06:16;;;;;;;10.35;9.98;;;5.60;99.90;;;;;;5022291;28;20037;-76
2022/12/30 09:08:43;;;;;;;11.15;10.75;;;5.60;99.90;;;;;;5024653;28;20029;-76
2022/12/30 09:11:12;;;;;;;11.32;10.93;;;5.60;99.90;;;;;;5012074;28;20060;-78
2022/12/30 09:13:39;;;;;;;11.57;11.18;;;5.60;99.90;;;;;;5024799;28;20117;-76
2022/12/30 09:16:07;;;;;;;12.40;12.00;;;5.60;99.90;;;;;;5020925;28;20025;-76
2022/12/30 09:18:33;;;;;;;12.25;11.85;;;5.60;99.90;;;;;;5015082;28;20068;-75
2022/12/30 09:20:59;;;;;;;12.02;11.63;;;5.70;99.90;;;;;;5023948;28;20144;-79
2022/12/30 09:23:24;;;;;;;12.82;12.32;;;5.70;99.90;;;;;;5026638;28;20484;-78
2022/12/30 09:25:50;;;;;;;14.07;13.57;;;5.70;99.90;;;;;;5013149;28;20034;-77
2022/12/30 09:28:16;;;;;;;11.45;11.05;;;5.80;99.90;;;;;;5035815;28;20025;-79
2022/12/30 09:30:41;;;;;;;12.10;11.70;;;5.80;99.90;;;;;;5018356;28;20040;-78
2022/12/30 09:33:07;;;;;;;12.52;12.13;;;5.90;99.90;;;;;;5018387;28;20018;-78
2022/12/30 09:35:33;;;;;;;12.85;12.35;;;5.90;99.90;;;;;;5030912;28;20022;-76
2022/12/30 09:37:59;;;;;;;12.35;11.93;;;6.00;99.90;;;;;;5028033;28;20028;-75
2022/12/30 09:41:11;;;;;;;12.75;12.25;;;6.00;99.90;;;;;;5023891;28;20029;-77
2022/12/30 09:44:02;;;;;;;13.80;13.30;;;6.00;99.90;;;;;;4967421;28;20505;-76
2022/12/30 09:46:43;;;;;;;13.40;12.90;;;6.00;99.90;;;;;;5020163;28;20061;-76
2022/12/30 09:49:23;;;;;;;14.40;13.90;;;6.00;99.90;;;;;;5033325;28;20022;-76
2022/12/30 09:52:11;;;;;;;14.18;13.68;;;6.10;99.90;;;;;;5025444;28;20026;-77
2022/12/30 09:54:40;;;;;;;13.50;13.00;;;6.20;99.90;;;;;;5027475;28;20022;-74
2022/12/30 09:59:56;;;;;;;13.98;13.48;;;6.20;99.90;;;;;;5024022;28;20029;-76
2022/12/30 10:02:24;;;;;;;14.98;14.48;;;6.20;99.90;;;;;;5020061;28;20031;-76
2022/12/30 10:04:49;;;;;;;13.23;12.73;;;6.30;99.90;;;;;;5023863;28;20095;-75
2022/12/30 10:07:32;;;;;;;14.07;13.57;;;6.30;99.90;;;;;;5027494;28;20435;-75
2022/12/30 10:10:13;;;;;;;15.23;14.52;;;6.30;99.90;;;;;;5026569;28;20029;-76
2022/12/30 10:13:05;;;;;;;14.02;13.52;;;6.30;99.90;;;;;;5022057;28;20053;-75
2022/12/30 10:15:33;;;;;;;15.60;15.00;;;6.30;99.90;;;;;;4993367;28;20120;-75
2022/12/30 10:18:21;;;;;;;17.00;16.40;;;6.40;99.90;;;;;;5021725;28;20022;-75
2022/12/30 10:21:01;;;;;;;16.42;15.82;;;6.40;99.90;;;;;;5021150;28;20021;-75
2022/12/30 10:23:46;;;;;;;15.60;15.00;;;6.50;99.90;;;;;;5019188;28;20032;-75
2022/12/30 10:26:13;;;;;;;14.85;14.35;;;6.50;99.90;;;;;;5014656;28;20034;-75
2022/12/30 10:28:48;;;;;;;14.07;13.57;;;6.60;99.90;;;;;;5013970;28;20045;-76
2022/12/30 10:31:23;;;;;;;13.32;12.82;;;6.60;99.90;;;;;;5025628;28;20120;-76
2022/12/30 10:33:51;;;;;;;12.88;12.38;;;6.70;99.90;;;;;;5021346;28;20029;-75
2022/12/30 10:36:45;;;;;;;14.05;13.55;;;6.70;99.90;;;;;;5020158;28;20022;-75
2022/12/30 10:39:24;;;;;;;14.50;14.00;;;6.70;99.90;;;;;;5005232;28;20038;-75
2022/12/30 10:42:06;;;;;;;14.05;13.55;;;6.80;99.90;;;;;;5013650;28;20049;-75
2022/12/30 10:44:49;;;;;;;12.70;12.25;;;6.80;99.90;;;;;;5028619;28;20068;-75
2022/12/30 10:47:34;;;;;;;14.50;14.00;;;6.80;99.90;;;;;;5032192;28;20112;-75
2022/12/30 10:50:13;;;;;;;14.73;14.23;;;6.80;99.90;;;;;;5033941;28;20499;-75
2022/12/30 10:52:39;;;;;;;14.15;13.65;;;6.90;99.90;;;;;;5033539;28;20127;-74
2022/12/30 10:55:32;;;;;;;13.65;13.15;;;6.90;99.90;;;;;;5033919;28;20036;-75
2022/12/30 10:58:10;;;;;;;13.95;13.45;;;7.00;99.90;;;;;;5030523;28;20049;-74
2022/12/30 11:00:40;;;;;;;14.35;13.85;;;7.00;99.90;;;;;;5033666;28;20017;-75
2022/12/30 11:03:29;;;;;;;13.88;13.38;;;7.00;99.90;;;;;;5032299;28;20040;-74
2022/12/30 11:05:56;;;;;;;13.73;13.23;;;7.10;99.90;;;;;;5033518;28;20033;-74
2022/12/30 11:08:29;;;;;;;14.55;14.05;;;7.10;99.90;;;;;;5032977;28;20029;-75
2022/12/30 11:11:06;;;;;;;12.05;11.65;;;7.20;99.90;;;;;;5032000;28;20022;-75
2022/12/30 11:16:26;;;;;;;13.52;13.02;;;7.20;99.90;;;;;;5022670;28;20033;-75
2022/12/30 11:18:52;;;;;;;12.40;11.90;;;7.30;99.90;;;;;;5028781;28;20686;-75
2022/12/30 11:21:30;;;;;;;12.63;12.20;;;7.30;99.90;;;;;;5022310;28;20057;-75
2022/12/30 11:24:01;;;;;;;11.15;10.75;;;7.30;99.90;;;;;;5026760;28;20050;-76
2022/12/30 11:26:30;;;;;;;12.10;11.70;;;7.40;99.90;;;;;;5026648;28;20108;-76
2022/12/30 11:29:09;;;;;;;12.23;11.77;;;7.40;99.90;;;;;;5020471;28;20519;-76
2022/12/30 11:31:41;;;;;;;13.15;12.65;;;7.50;99.90;;;;;;5018439;28;20476;-77
2022/12/30 11:34:31;;;;;;;11.55;11.13;;;7.40;99.90;;;;;;5023285;28;20025;-76
2022/12/30 11:36:57;;;;;;;8.75;8.45;;;7.50;99.90;;;;;;5012544;28;20427;-76
2022/12/30 11:39:22;;;;;;;11.43;11.02;;;7.60;99.90;;;;;;5025119;28;20022;-75
2022/12/30 11:42:37;;;;;;;10.07;9.68;;;7.50;99.90;;;;;;5019421;28;20025;-76
2022/12/30 11:45:17;;;;;;;9.38;9.07;;;7.50;99.90;;;;;;5017231;28;20045;-75
2022/12/30 11:47:47;;;;;;;9.40;9.10;;;7.50;99.90;;;;;;5018059;28;20048;-75
2022/12/30 11:50:17;;;;;;;9.32;9.02;;;7.40;99.90;;;;;;5022811;28;20027;-75
2022/12/30 11:52:52;;;;;;;9.50;9.20;;;7.50;99.90;;;;;;5026024;28;20040;-76
2022/12/30 11:55:24;;;;;;;9.40;9.10;;;7.40;99.90;;;;;;5023671;28;20440;-75
2022/12/30 11:57:51;;;;;;;9.45;9.15;;;7.30;99.90;;;;;;5014340;28;20065;-75
2022/12/30 12:00:17;;;;;;;8.80;8.50;;;7.20;99.90;;;;;;5012893;28;20028;-75
2022/12/30 12:02:55;;;;;;;8.65;8.35;;;7.20;99.90;;;;;;5024592;28;20026;-75
2022/12/30 12:05:39;;;;;;;8.82;8.52;;;7.20;99.90;;;;;;5026277;28;20025;-75
2022/12/30 12:08:28;;;;;;;8.90;8.60;;;7.20;99.90;;;;;;5020652;28;20033;-76
2022/12/30 12:10:58;;;;;;;8.25;7.95;;;7.10;99.90;;;;;;5026821;28;20164;-75
2022/12/30 12:13:29;;;;;;;8.55;8.25;;;7.10;99.90;;;;;;5025330;28;20060;-75
2022/12/30 12:15:57;;;;;;;6.88;6.68;;;7.00;99.90;;;;;;5024081;28;20480;-75
2022/12/30 12:18:47;;;;;;;7.70;7.40;;;7.00;99.90;;;;;;5024960;28;20160;-76
2022/12/30 12:21:13;;;;;;;7.47;7.25;;;7.10;99.90;;;;;;5022519;28;20350;-76
2022/12/30 12:23:46;;;;;;;5.55;5.35;;;7.30;99.90;;;;;;5025731;28;20025;-76
2022/12/30 12:26:22;;;;;;;4.90;4.70;;;7.30;99.90;;;;;;5017845;28;20024;-76
2022/12/30 12:28:49;;;;;;;4.95;4.75;;;7.30;99.90;;;;;;5013442;28;20022;-76
2022/12/30 12:31:43;;;;;;;5.40;5.20;;;7.30;99.90;;;;;;5011101;28;20125;-76
2022/12/30 12:34:37;;;;;;;6.30;6.10;;;7.20;99.90;;;;;;5011035;28;20037;-76
2022/12/30 12:37:24;;;;;;;3.85;3.75;;;7.20;99.90;;;;;;5019351;28;20484;-76
2022/12/30 12:39:57;;;;;;;4.70;4.60;;;7.10;99.90;;;;;;5031800;28;20029;-76
2022/12/30 12:42:41;;;;;;;4.15;4.05;;;7.00;99.90;;;;;;5020800;28;20025;-76
2022/12/30 12:45:25;;;;;;;3.10;3.00;;;7.00;99.90;;;;;;5016094;28;20387;-75
2022/12/30 12:48:36;;;;;;;3.70;3.60;;;7.00;99.90;;;;;;5012828;28;20033;-76
2022/12/30 12:51:16;;;;;;;5.05;4.85;;;7.00;99.90;;;;;;5031727;28;20030;-76
2022/12/30 12:53:53;;;;;;;3.60;3.50;;;6.90;99.90;;;;;;5031526;28;20064;-75
2022/12/30 12:56:47;;;;;;;3.97;3.83;;;6.90;99.90;;;;;;5026449;28;20099;-75
2022/12/30 12:59:38;;;;;;;2.30;2.20;;;6.90;99.90;;;;;;5010498;28;20476;-77
2022/12/30 13:02:24;;;;;;;2.90;2.80;;;6.80;99.90;;;;;;5012279;28;20026;-74
2022/12/30 13:05:15;;;;;;;3.67;3.58;;;6.90;99.90;;;;;;5012047;28;20058;-76
2022/12/30 13:08:04;;;;;;;3.30;3.20;;;6.90;99.90;;;;;;5025014;28;20407;-75
2022/12/30 13:11:10;;;;;;;3.17;3.08;;;6.90;99.90;;;;;;5024226;28;20026;-76
2022/12/30 13:13:54;;;;;;;2.75;2.65;;;6.80;99.90;;;;;;5024695;28;20032;-76
2022/12/30 13:16:26;;;;;;;2.75;2.65;;;6.80;99.90;;;;;;5021694;28;20113;-76
2022/12/30 13:18:55;;;;;;;2.63;2.53;;;6.80;99.90;;;;;;5025244;28;20026;-76
2022/12/30 13:21:25;;;;;;;2.47;2.38;;;6.80;99.90;;;;;;5023036;28;20032;-75
2022/12/30 13:23:54;;;;;;;2.70;2.60;;;6.70;99.90;;;;;;5018141;28;20446;-75
2022/12/30 13:26:23;;;;;;;2.50;2.40;;;6.70;99.90;;;;;;5026872;28;20105;-76
2022/12/30 13:29:00;;;;;;;3.10;3.00;;;6.60;99.90;;;;;;5028830;28;20029;-76
2022/12/30 13:31:38;;;;;;;2.28;2.17;;;6.60;99.90;;;;;;5015866;28;20029;-76
2022/12/30 13:34:22;;;;;;;2.72;2.63;;;6.60;99.90;;;;;;5011454;28;20040;-76
2022/12/30 13:36:59;;;;;;;2.35;2.25;;;6.50;99.90;;;;;;5030659;28;20021;-73
2022/12/30 13:39:32;;;;;;;2.58;2.47;;;6.50;99.90;;;;;;5031282;28;20025;-76
2022/12/30 13:42:22;;;;;;;2.33;2.22;;;6.40;99.90;;;;;;5017832;28;20368;-76
2022/12/30 13:44:48;;;;;;;2.33;2.22;;;6.50;99.90;;;;;;5026830;28;20026;-76
2022/12/30 13:47:41;;;;;;;1.60;1.60;;;6.40;99.90;;;;;;5021023;28;20021;-76
2022/12/30 13:50:25;;;;;;;1.80;1.80;;;6.40;99.90;;;;;;5017276;28;20037;-76
2022/12/30 13:52:53;;;;;;;1.90;1.80;;;6.40;99.90;;;;;;5025761;28;20392;-76
2022/12/30 13:55:20;;;;;;;2.72;2.03;;;6.30;99.90;;;;;;5022230;28;20021;-76
2022/12/30 13:57:51;;;;;;;2.08;2.08;;;6.30;99.90;;;;;;5017611;28;20025;-75
2022/12/30 14:00:20;;;;;;;1.90;1.90;;;6.30;99.90;;;;;;5031240;28;20031;-76
2022/12/30 14:02:50;;;;;;;2.13;2.03;;;6.30;99.90;;;;;;5017987;28;20021;-76
2022/12/30 14:05:34;;;;;;;3.20;2.78;;;6.30;99.90;;;;;;5018708;28;20022;-76
2022/12/30 14:08:00;;;;;;;1.70;1.70;;;6.30;99.90;;;;;;5019545;28;20544;-75
2022/12/30 14:10:42;;;;;;;1.80;1.80;;;6.30;99.90;;;;;;5029738;28;20032;-76
2022/12/30 14:13:11;;;;;;;1.92;1.90;;;6.30;99.90;;;;;;5020412;28;20030;-75